sensor_id;sensor_type;location;lat;lon;timestamp;P1;durP1;ratioP1;P2;durP2;ratioP2
22973;SDS011;11653;50.848;4.584;2024-03-22T00:01:41;74.33;;;38.17;;
22973;SDS011;11653;50.848;4.584;2024-03-22T00:04:07;74.70;;;38.13;;
22973;SDS011;11653;50.848;4.584;2024-03-22T00:06:33;71.57;;;38.23;;
22973;SDS011;11653;50.848;4.584;2024-03-22T00:08:58;79.77;;;38.97;;
22973;SDS011;11653;50.848;4.584;2024-03-22T00:11:24;80.97;;;38.83;;
22973;SDS011;11653;50.848;4.584;2024-03-22T00:13:50;78.50;;;39.00;;
22973;SDS011;11653;50.848;4.584;2024-03-22T00:16:16;78.23;;;39.67;;
22973;SDS011;11653;50.848;4.584;2024-03-22T00:18:41;81.13;;;38.83;;
22973;SDS011;11653;50.848;4.584;2024-03-22T00:21:07;77.47;;;38.83;;
22973;SDS011;11653;50.848;4.584;2024-03-22T00:23:33;74.73;;;39.17;;
22973;SDS011;11653;50.848;4.584;2024-03-22T00:25:59;74.97;;;39.03;;
22973;SDS011;11653;50.848;4.584;2024-03-22T00:28:25;72.40;;;36.73;;
22973;SDS011;11653;50.848;4.584;2024-03-22T00:30:50;79.00;;;38.43;;
22973;SDS011;11653;50.848;4.584;2024-03-22T00:33:16;73.33;;;39.77;;
22973;SDS011;11653;50.848;4.584;2024-03-22T00:35:42;75.77;;;37.60;;
22973;SDS011;11653;50.848;4.584;2024-03-22T00:38:07;71.30;;;37.50;;
22973;SDS011;11653;50.848;4.584;2024-03-22T00:40:33;72.23;;;37.30;;
22973;SDS011;11653;50.848;4.584;2024-03-22T00:42:58;74.10;;;38.33;;
22973;SDS011;11653;50.848;4.584;2024-03-22T00:45:24;78.00;;;39.30;;
22973;SDS011;11653;50.848;4.584;2024-03-22T00:47:50;81.30;;;37.93;;
22973;SDS011;11653;50.848;4.584;2024-03-22T00:50:16;72.53;;;36.87;;
22973;SDS011;11653;50.848;4.584;2024-03-22T00:52:41;65.60;;;35.33;;
22973;SDS011;11653;50.848;4.584;2024-03-22T00:55:07;74.83;;;35.77;;
22973;SDS011;11653;50.848;4.584;2024-03-22T00:57:33;68.67;;;35.40;;
22973;SDS011;11653;50.848;4.584;2024-03-22T00:59:58;70.27;;;34.10;;
22973;SDS011;11653;50.848;4.584;2024-03-22T01:02:24;66.57;;;35.13;;
22973;SDS011;11653;50.848;4.584;2024-03-22T01:04:50;64.40;;;31.83;;
22973;SDS011;11653;50.848;4.584;2024-03-22T01:07:15;59.67;;;32.83;;
22973;SDS011;11653;50.848;4.584;2024-03-22T01:09:41;66.30;;;31.20;;
22973;SDS011;11653;50.848;4.584;2024-03-22T01:12:09;56.30;;;31.30;;
22973;SDS011;11653;50.848;4.584;2024-03-22T01:14:35;59.17;;;29.63;;
22973;SDS011;11653;50.848;4.584;2024-03-22T01:17:00;53.83;;;29.40;;
22973;SDS011;11653;50.848;4.584;2024-03-22T01:19:26;50.70;;;27.27;;
22973;SDS011;11653;50.848;4.584;2024-03-22T01:21:52;52.07;;;26.87;;
22973;SDS011;11653;50.848;4.584;2024-03-22T01:24:18;51.70;;;27.47;;
22973;SDS011;11653;50.848;4.584;2024-03-22T01:26:43;51.93;;;27.10;;
22973;SDS011;11653;50.848;4.584;2024-03-22T01:29:09;48.13;;;26.30;;
22973;SDS011;11653;50.848;4.584;2024-03-22T01:31:34;47.17;;;25.40;;
22973;SDS011;11653;50.848;4.584;2024-03-22T01:34:00;48.50;;;25.97;;
22973;SDS011;11653;50.848;4.584;2024-03-22T01:36:26;45.90;;;25.63;;
22973;SDS011;11653;50.848;4.584;2024-03-22T01:38:51;48.70;;;25.63;;
22973;SDS011;11653;50.848;4.584;2024-03-22T01:41:17;45.40;;;25.63;;
22973;SDS011;11653;50.848;4.584;2024-03-22T01:43:43;46.93;;;26.00;;
22973;SDS011;11653;50.848;4.584;2024-03-22T01:46:08;51.03;;;26.50;;
22973;SDS011;11653;50.848;4.584;2024-03-22T01:48:34;45.83;;;25.90;;
22973;SDS011;11653;50.848;4.584;2024-03-22T01:51:00;51.20;;;25.37;;
22973;SDS011;11653;50.848;4.584;2024-03-22T01:53:27;45.30;;;25.67;;
22973;SDS011;11653;50.848;4.584;2024-03-22T01:55:53;49.50;;;26.30;;
22973;SDS011;11653;50.848;4.584;2024-03-22T01:58:19;43.97;;;25.80;;
22973;SDS011;11653;50.848;4.584;2024-03-22T02:00:46;45.83;;;25.53;;
22973;SDS011;11653;50.848;4.584;2024-03-22T02:03:12;42.37;;;25.80;;
22973;SDS011;11653;50.848;4.584;2024-03-22T02:05:38;47.37;;;25.40;;
22973;SDS011;11653;50.848;4.584;2024-03-22T02:08:04;47.80;;;23.80;;
22973;SDS011;11653;50.848;4.584;2024-03-22T02:10:30;43.43;;;23.20;;
22973;SDS011;11653;50.848;4.584;2024-03-22T02:12:56;42.57;;;24.20;;
22973;SDS011;11653;50.848;4.584;2024-03-22T02:15:21;40.83;;;23.83;;
22973;SDS011;11653;50.848;4.584;2024-03-22T02:17:47;41.27;;;23.73;;
22973;SDS011;11653;50.848;4.584;2024-03-22T02:20:13;43.90;;;23.30;;
22973;SDS011;11653;50.848;4.584;2024-03-22T02:22:38;43.97;;;24.43;;
22973;SDS011;11653;50.848;4.584;2024-03-22T02:25:04;40.30;;;22.73;;
22973;SDS011;11653;50.848;4.584;2024-03-22T02:27:30;43.73;;;24.00;;
22973;SDS011;11653;50.848;4.584;2024-03-22T02:29:56;38.70;;;22.30;;
22973;SDS011;11653;50.848;4.584;2024-03-22T02:32:21;39.90;;;22.80;;
22973;SDS011;11653;50.848;4.584;2024-03-22T02:34:47;41.87;;;23.33;;
22973;SDS011;11653;50.848;4.584;2024-03-22T02:37:13;42.40;;;22.63;;
22973;SDS011;11653;50.848;4.584;2024-03-22T02:39:38;37.57;;;21.40;;
22973;SDS011;11653;50.848;4.584;2024-03-22T02:42:04;38.97;;;21.13;;
22973;SDS011;11653;50.848;4.584;2024-03-22T02:44:30;38.97;;;21.60;;
22973;SDS011;11653;50.848;4.584;2024-03-22T02:46:55;39.17;;;21.40;;
22973;SDS011;11653;50.848;4.584;2024-03-22T02:49:21;38.90;;;21.33;;
22973;SDS011;11653;50.848;4.584;2024-03-22T02:51:47;39.17;;;21.87;;
22973;SDS011;11653;50.848;4.584;2024-03-22T02:54:12;38.87;;;21.73;;
22973;SDS011;11653;50.848;4.584;2024-03-22T02:56:39;39.73;;;21.80;;
22973;SDS011;11653;50.848;4.584;2024-03-22T02:59:04;34.97;;;20.23;;
22973;SDS011;11653;50.848;4.584;2024-03-22T03:01:30;38.10;;;21.67;;
22973;SDS011;11653;50.848;4.584;2024-03-22T03:03:55;42.57;;;20.77;;
22973;SDS011;11653;50.848;4.584;2024-03-22T03:06:21;35.67;;;19.33;;
22973;SDS011;11653;50.848;4.584;2024-03-22T03:08:47;39.63;;;19.93;;
22973;SDS011;11653;50.848;4.584;2024-03-22T03:11:15;36.70;;;19.17;;
22973;SDS011;11653;50.848;4.584;2024-03-22T03:13:41;36.27;;;19.70;;
22973;SDS011;11653;50.848;4.584;2024-03-22T03:16:07;37.83;;;19.20;;
22973;SDS011;11653;50.848;4.584;2024-03-22T03:18:32;36.40;;;18.47;;
22973;SDS011;11653;50.848;4.584;2024-03-22T03:20:58;32.53;;;19.00;;
22973;SDS011;11653;50.848;4.584;2024-03-22T03:23:23;33.53;;;19.47;;
22973;SDS011;11653;50.848;4.584;2024-03-22T03:25:49;32.97;;;18.30;;
22973;SDS011;11653;50.848;4.584;2024-03-22T03:28:15;31.73;;;18.37;;
22973;SDS011;11653;50.848;4.584;2024-03-22T03:30:40;29.17;;;16.90;;
22973;SDS011;11653;50.848;4.584;2024-03-22T03:33:06;30.43;;;17.23;;
22973;SDS011;11653;50.848;4.584;2024-03-22T03:35:32;29.77;;;16.80;;
22973;SDS011;11653;50.848;4.584;2024-03-22T03:37:57;33.40;;;17.80;;
22973;SDS011;11653;50.848;4.584;2024-03-22T03:40:24;29.20;;;17.20;;
22973;SDS011;11653;50.848;4.584;2024-03-22T03:42:53;28.70;;;16.37;;
22973;SDS011;11653;50.848;4.584;2024-03-22T03:45:18;30.33;;;16.13;;
22973;SDS011;11653;50.848;4.584;2024-03-22T03:47:44;24.57;;;15.40;;
22973;SDS011;11653;50.848;4.584;2024-03-22T03:50:11;25.93;;;15.13;;
22973;SDS011;11653;50.848;4.584;2024-03-22T03:52:37;27.30;;;16.00;;
22973;SDS011;11653;50.848;4.584;2024-03-22T03:55:03;30.53;;;15.63;;
22973;SDS011;11653;50.848;4.584;2024-03-22T03:57:29;28.33;;;15.83;;
22973;SDS011;11653;50.848;4.584;2024-03-22T03:59:54;31.97;;;15.90;;
22973;SDS011;11653;50.848;4.584;2024-03-22T04:02:20;25.07;;;14.53;;
22973;SDS011;11653;50.848;4.584;2024-03-22T04:04:46;27.40;;;15.43;;
22973;SDS011;11653;50.848;4.584;2024-03-22T04:07:12;25.43;;;14.47;;
22973;SDS011;11653;50.848;4.584;2024-03-22T04:09:37;25.70;;;13.87;;
22973;SDS011;11653;50.848;4.584;2024-03-22T04:12:03;28.47;;;14.60;;
22973;SDS011;11653;50.848;4.584;2024-03-22T04:14:29;26.43;;;14.53;;
22973;SDS011;11653;50.848;4.584;2024-03-22T04:16:54;26.07;;;14.00;;
22973;SDS011;11653;50.848;4.584;2024-03-22T04:19:21;27.43;;;13.97;;
22973;SDS011;11653;50.848;4.584;2024-03-22T04:21:48;23.00;;;13.57;;
22973;SDS011;11653;50.848;4.584;2024-03-22T04:24:14;24.30;;;13.47;;
22973;SDS011;11653;50.848;4.584;2024-03-22T04:26:40;20.80;;;12.43;;
22973;SDS011;11653;50.848;4.584;2024-03-22T04:29:05;26.10;;;12.93;;
22973;SDS011;11653;50.848;4.584;2024-03-22T04:31:31;20.80;;;13.50;;
22973;SDS011;11653;50.848;4.584;2024-03-22T04:33:57;25.30;;;13.33;;
22973;SDS011;11653;50.848;4.584;2024-03-22T04:36:22;24.07;;;13.00;;
22973;SDS011;11653;50.848;4.584;2024-03-22T04:38:48;22.10;;;12.30;;
22973;SDS011;11653;50.848;4.584;2024-03-22T04:41:14;26.67;;;13.47;;
22973;SDS011;11653;50.848;4.584;2024-03-22T04:43:39;21.67;;;12.43;;
22973;SDS011;11653;50.848;4.584;2024-03-22T04:46:05;17.93;;;9.77;;
22973;SDS011;11653;50.848;4.584;2024-03-22T04:48:31;21.83;;;12.97;;
22973;SDS011;11653;50.848;4.584;2024-03-22T04:50:56;24.20;;;12.10;;
22973;SDS011;11653;50.848;4.584;2024-03-22T04:53:22;22.13;;;12.20;;
22973;SDS011;11653;50.848;4.584;2024-03-22T04:55:48;23.97;;;12.77;;
22973;SDS011;11653;50.848;4.584;2024-03-22T04:58:15;20.93;;;12.30;;
22973;SDS011;11653;50.848;4.584;2024-03-22T05:00:42;22.50;;;11.63;;
22973;SDS011;11653;50.848;4.584;2024-03-22T05:03:09;19.87;;;11.23;;
22973;SDS011;11653;50.848;4.584;2024-03-22T05:05:35;18.83;;;11.63;;
22973;SDS011;11653;50.848;4.584;2024-03-22T05:08:01;20.43;;;11.00;;
22973;SDS011;11653;50.848;4.584;2024-03-22T05:10:27;20.87;;;12.43;;
22973;SDS011;11653;50.848;4.584;2024-03-22T05:12:54;21.13;;;11.50;;
22973;SDS011;11653;50.848;4.584;2024-03-22T05:15:20;21.50;;;12.23;;
22973;SDS011;11653;50.848;4.584;2024-03-22T05:17:46;21.47;;;12.07;;
22973;SDS011;11653;50.848;4.584;2024-03-22T05:20:11;24.10;;;12.30;;
22973;SDS011;11653;50.848;4.584;2024-03-22T05:22:37;20.20;;;11.60;;
22973;SDS011;11653;50.848;4.584;2024-03-22T05:25:03;21.97;;;11.47;;
22973;SDS011;11653;50.848;4.584;2024-03-22T05:27:30;19.43;;;10.97;;
22973;SDS011;11653;50.848;4.584;2024-03-22T05:29:57;20.23;;;11.63;;
22973;SDS011;11653;50.848;4.584;2024-03-22T05:32:24;23.57;;;13.13;;
22973;SDS011;11653;50.848;4.584;2024-03-22T05:34:50;20.07;;;11.60;;
22973;SDS011;11653;50.848;4.584;2024-03-22T05:37:16;24.80;;;13.07;;
22973;SDS011;11653;50.848;4.584;2024-03-22T05:39:41;18.87;;;13.07;;
22973;SDS011;11653;50.848;4.584;2024-03-22T05:42:07;22.03;;;12.90;;
22973;SDS011;11653;50.848;4.584;2024-03-22T05:44:33;22.20;;;13.10;;
22973;SDS011;11653;50.848;4.584;2024-03-22T05:46:59;25.33;;;13.73;;
22973;SDS011;11653;50.848;4.584;2024-03-22T05:49:25;21.03;;;12.47;;
22973;SDS011;11653;50.848;4.584;2024-03-22T05:51:51;23.00;;;13.40;;
22973;SDS011;11653;50.848;4.584;2024-03-22T05:54:16;28.50;;;14.33;;
22973;SDS011;11653;50.848;4.584;2024-03-22T05:56:42;25.27;;;12.87;;
22973;SDS011;11653;50.848;4.584;2024-03-22T05:59:07;25.10;;;13.03;;
22973;SDS011;11653;50.848;4.584;2024-03-22T06:01:33;23.80;;;13.03;;
22973;SDS011;11653;50.848;4.584;2024-03-22T06:03:59;23.03;;;13.87;;
22973;SDS011;11653;50.848;4.584;2024-03-22T06:06:25;26.27;;;13.80;;
22973;SDS011;11653;50.848;4.584;2024-03-22T06:08:54;25.37;;;13.73;;
22973;SDS011;11653;50.848;4.584;2024-03-22T06:11:22;24.67;;;14.37;;
22973;SDS011;11653;50.848;4.584;2024-03-22T06:13:48;22.37;;;13.97;;
22973;SDS011;11653;50.848;4.584;2024-03-22T06:16:14;28.23;;;14.93;;
22973;SDS011;11653;50.848;4.584;2024-03-22T06:18:39;25.83;;;14.87;;
22973;SDS011;11653;50.848;4.584;2024-03-22T06:21:05;29.37;;;15.73;;
22973;SDS011;11653;50.848;4.584;2024-03-22T06:23:31;31.90;;;15.43;;
22973;SDS011;11653;50.848;4.584;2024-03-22T06:25:57;30.70;;;16.57;;
22973;SDS011;11653;50.848;4.584;2024-03-22T06:28:25;35.90;;;17.53;;
22973;SDS011;11653;50.848;4.584;2024-03-22T06:30:52;27.27;;;14.17;;
22973;SDS011;11653;50.848;4.584;2024-03-22T06:33:19;29.57;;;16.50;;
22973;SDS011;11653;50.848;4.584;2024-03-22T06:35:45;32.63;;;16.20;;
22973;SDS011;11653;50.848;4.584;2024-03-22T06:38:11;29.37;;;16.80;;
22973;SDS011;11653;50.848;4.584;2024-03-22T06:40:37;27.97;;;16.07;;
22973;SDS011;11653;50.848;4.584;2024-03-22T06:43:03;29.60;;;16.63;;
22973;SDS011;11653;50.848;4.584;2024-03-22T06:45:29;26.63;;;16.03;;
22973;SDS011;11653;50.848;4.584;2024-03-22T06:47:55;24.77;;;14.80;;
22973;SDS011;11653;50.848;4.584;2024-03-22T06:50:20;23.80;;;13.47;;
22973;SDS011;11653;50.848;4.584;2024-03-22T06:52:52;25.20;;;12.37;;
22973;SDS011;11653;50.848;4.584;2024-03-22T06:55:19;15.40;;;7.90;;
22973;SDS011;11653;50.848;4.584;2024-03-22T06:57:46;20.43;;;11.40;;
22973;SDS011;11653;50.848;4.584;2024-03-22T07:00:13;22.70;;;11.53;;
22973;SDS011;11653;50.848;4.584;2024-03-22T07:02:39;26.20;;;13.53;;
22973;SDS011;11653;50.848;4.584;2024-03-22T07:05:06;22.80;;;12.07;;
22973;SDS011;11653;50.848;4.584;2024-03-22T07:07:32;23.97;;;11.30;;
22973;SDS011;11653;50.848;4.584;2024-03-22T07:09:58;25.87;;;12.73;;
22973;SDS011;11653;50.848;4.584;2024-03-22T07:12:24;26.43;;;12.67;;
22973;SDS011;11653;50.848;4.584;2024-03-22T07:14:50;20.57;;;11.17;;
22973;SDS011;11653;50.848;4.584;2024-03-22T07:17:15;22.90;;;12.73;;
22973;SDS011;11653;50.848;4.584;2024-03-22T07:19:41;29.03;;;12.37;;
22973;SDS011;11653;50.848;4.584;2024-03-22T07:22:07;23.97;;;12.03;;
22973;SDS011;11653;50.848;4.584;2024-03-22T07:24:33;32.20;;;13.63;;
22973;SDS011;11653;50.848;4.584;2024-03-22T07:26:59;27.30;;;13.33;;
22973;SDS011;11653;50.848;4.584;2024-03-22T07:29:25;25.33;;;12.27;;
22973;SDS011;11653;50.848;4.584;2024-03-22T07:31:50;19.10;;;9.53;;
22973;SDS011;11653;50.848;4.584;2024-03-22T07:34:16;20.10;;;10.40;;
22973;SDS011;11653;50.848;4.584;2024-03-22T07:36:42;29.03;;;13.20;;
22973;SDS011;11653;50.848;4.584;2024-03-22T07:39:07;31.17;;;13.30;;
22973;SDS011;11653;50.848;4.584;2024-03-22T07:41:33;28.40;;;12.10;;
22973;SDS011;11653;50.848;4.584;2024-03-22T07:43:59;32.27;;;14.67;;
22973;SDS011;11653;50.848;4.584;2024-03-22T07:46:26;27.27;;;11.87;;
22973;SDS011;11653;50.848;4.584;2024-03-22T07:48:53;27.03;;;13.40;;
22973;SDS011;11653;50.848;4.584;2024-03-22T07:51:19;31.00;;;14.67;;
22973;SDS011;11653;50.848;4.584;2024-03-22T07:53:45;29.67;;;14.70;;
22973;SDS011;11653;50.848;4.584;2024-03-22T07:56:10;26.23;;;13.00;;
22973;SDS011;11653;50.848;4.584;2024-03-22T07:58:38;27.83;;;14.63;;
22973;SDS011;11653;50.848;4.584;2024-03-22T08:01:04;33.00;;;14.47;;
22973;SDS011;11653;50.848;4.584;2024-03-22T08:03:29;30.20;;;15.00;;
22973;SDS011;11653;50.848;4.584;2024-03-22T08:05:55;31.67;;;14.97;;
22973;SDS011;11653;50.848;4.584;2024-03-22T08:08:21;27.00;;;13.83;;
22973;SDS011;11653;50.848;4.584;2024-03-22T08:10:47;31.87;;;13.23;;
22973;SDS011;11653;50.848;4.584;2024-03-22T08:13:13;29.60;;;14.10;;
22973;SDS011;11653;50.848;4.584;2024-03-22T08:15:39;27.23;;;12.97;;
22973;SDS011;11653;50.848;4.584;2024-03-22T08:18:05;21.10;;;9.63;;
22973;SDS011;11653;50.848;4.584;2024-03-22T08:20:31;24.03;;;13.17;;
22973;SDS011;11653;50.848;4.584;2024-03-22T08:22:58;22.57;;;11.43;;
22973;SDS011;11653;50.848;4.584;2024-03-22T08:25:24;17.23;;;8.00;;
22973;SDS011;11653;50.848;4.584;2024-03-22T08:27:50;21.70;;;12.53;;
22973;SDS011;11653;50.848;4.584;2024-03-22T08:30:20;18.43;;;10.10;;
22973;SDS011;11653;50.848;4.584;2024-03-22T08:32:46;20.97;;;11.53;;
22973;SDS011;11653;50.848;4.584;2024-03-22T08:35:11;21.50;;;10.27;;
22973;SDS011;11653;50.848;4.584;2024-03-22T08:37:37;23.87;;;12.97;;
22973;SDS011;11653;50.848;4.584;2024-03-22T08:40:03;31.73;;;15.23;;
22973;SDS011;11653;50.848;4.584;2024-03-22T08:42:32;26.50;;;13.50;;
22973;SDS011;11653;50.848;4.584;2024-03-22T08:44:58;28.37;;;15.00;;
22973;SDS011;11653;50.848;4.584;2024-03-22T08:47:23;25.57;;;14.87;;
22973;SDS011;11653;50.848;4.584;2024-03-22T08:49:49;29.27;;;15.07;;
22973;SDS011;11653;50.848;4.584;2024-03-22T08:52:15;23.53;;;14.43;;
22973;SDS011;11653;50.848;4.584;2024-03-22T08:54:40;26.43;;;14.90;;
22973;SDS011;11653;50.848;4.584;2024-03-22T08:57:06;27.67;;;14.33;;
22973;SDS011;11653;50.848;4.584;2024-03-22T08:59:32;23.70;;;13.80;;
22973;SDS011;11653;50.848;4.584;2024-03-22T09:01:57;23.37;;;14.27;;
22973;SDS011;11653;50.848;4.584;2024-03-22T09:04:24;24.67;;;12.80;;
22973;SDS011;11653;50.848;4.584;2024-03-22T09:06:50;23.57;;;14.60;;
22973;SDS011;11653;50.848;4.584;2024-03-22T09:09:16;25.63;;;14.17;;
22973;SDS011;11653;50.848;4.584;2024-03-22T09:11:42;26.60;;;12.87;;
22973;SDS011;11653;50.848;4.584;2024-03-22T09:14:08;22.00;;;12.93;;
22973;SDS011;11653;50.848;4.584;2024-03-22T09:16:34;23.40;;;13.47;;
22973;SDS011;11653;50.848;4.584;2024-03-22T09:18:59;21.90;;;12.83;;
22973;SDS011;11653;50.848;4.584;2024-03-22T09:21:25;20.87;;;12.47;;
22973;SDS011;11653;50.848;4.584;2024-03-22T09:23:51;21.17;;;12.90;;
22973;SDS011;11653;50.848;4.584;2024-03-22T09:26:17;25.33;;;14.20;;
22973;SDS011;11653;50.848;4.584;2024-03-22T09:28:45;20.53;;;12.67;;
22973;SDS011;11653;50.848;4.584;2024-03-22T09:31:11;22.17;;;12.00;;
22973;SDS011;11653;50.848;4.584;2024-03-22T09:33:37;20.80;;;11.87;;
22973;SDS011;11653;50.848;4.584;2024-03-22T09:36:03;18.13;;;10.50;;
22973;SDS011;11653;50.848;4.584;2024-03-22T09:38:28;20.60;;;12.33;;
22973;SDS011;11653;50.848;4.584;2024-03-22T09:41:02;25.13;;;13.07;;
22973;SDS011;11653;50.848;4.584;2024-03-22T09:43:28;20.03;;;11.93;;
22973;SDS011;11653;50.848;4.584;2024-03-22T09:45:55;24.23;;;12.43;;
22973;SDS011;11653;50.848;4.584;2024-03-22T09:48:21;23.00;;;13.67;;
22973;SDS011;11653;50.848;4.584;2024-03-22T09:50:48;20.10;;;12.90;;
22973;SDS011;11653;50.848;4.584;2024-03-22T09:53:20;19.17;;;11.07;;
22973;SDS011;11653;50.848;4.584;2024-03-22T09:55:47;22.27;;;12.23;;
22973;SDS011;11653;50.848;4.584;2024-03-22T09:58:14;19.70;;;11.73;;
22973;SDS011;11653;50.848;4.584;2024-03-22T10:00:42;18.57;;;10.90;;
22973;SDS011;11653;50.848;4.584;2024-03-22T10:03:07;19.20;;;11.80;;
22973;SDS011;11653;50.848;4.584;2024-03-22T10:05:35;28.90;;;12.60;;
22973;SDS011;11653;50.848;4.584;2024-03-22T10:08:01;16.97;;;9.70;;
22973;SDS011;11653;50.848;4.584;2024-03-22T10:10:33;22.57;;;12.40;;
22973;SDS011;11653;50.848;4.584;2024-03-22T10:13:02;21.73;;;11.57;;
22973;SDS011;11653;50.848;4.584;2024-03-22T10:15:29;20.13;;;11.33;;
22973;SDS011;11653;50.848;4.584;2024-03-22T10:17:56;23.40;;;13.70;;
22973;SDS011;11653;50.848;4.584;2024-03-22T10:20:22;24.03;;;11.50;;
22973;SDS011;11653;50.848;4.584;2024-03-22T10:22:48;27.60;;;14.63;;
22973;SDS011;11653;50.848;4.584;2024-03-22T10:25:20;23.50;;;13.90;;
22973;SDS011;11653;50.848;4.584;2024-03-22T10:27:47;22.23;;;13.93;;
22973;SDS011;11653;50.848;4.584;2024-03-22T10:30:13;24.30;;;13.90;;
22973;SDS011;11653;50.848;4.584;2024-03-22T10:32:42;20.83;;;12.27;;
22973;SDS011;11653;50.848;4.584;2024-03-22T10:35:09;22.43;;;13.30;;
22973;SDS011;11653;50.848;4.584;2024-03-22T10:37:38;24.87;;;14.10;;
22973;SDS011;11653;50.848;4.584;2024-03-22T10:40:04;20.47;;;13.37;;
22973;SDS011;11653;50.848;4.584;2024-03-22T10:42:34;23.23;;;13.37;;
22973;SDS011;11653;50.848;4.584;2024-03-22T10:45:08;21.50;;;12.63;;
22973;SDS011;11653;50.848;4.584;2024-03-22T10:47:34;25.10;;;13.03;;
22973;SDS011;11653;50.848;4.584;2024-03-22T10:52:34;19.47;;;12.17;;
22973;SDS011;11653;50.848;4.584;2024-03-22T10:55:04;19.83;;;12.20;;
22973;SDS011;11653;50.848;4.584;2024-03-22T10:57:32;23.40;;;13.83;;
22973;SDS011;11653;50.848;4.584;2024-03-22T11:00:02;19.37;;;12.33;;
22973;SDS011;11653;50.848;4.584;2024-03-22T11:02:37;22.47;;;12.83;;
22973;SDS011;11653;50.848;4.584;2024-03-22T11:05:06;19.57;;;10.67;;
22973;SDS011;11653;50.848;4.584;2024-03-22T11:07:32;21.47;;;12.53;;
22973;SDS011;11653;50.848;4.584;2024-03-22T11:10:00;20.43;;;11.70;;
22973;SDS011;11653;50.848;4.584;2024-03-22T11:12:28;19.00;;;11.03;;
22973;SDS011;11653;50.848;4.584;2024-03-22T11:14:58;22.10;;;11.90;;
22973;SDS011;11653;50.848;4.584;2024-03-22T11:17:24;19.30;;;11.90;;
22973;SDS011;11653;50.848;4.584;2024-03-22T11:19:50;21.27;;;11.93;;
22973;SDS011;11653;50.848;4.584;2024-03-22T11:22:17;22.73;;;12.47;;
22973;SDS011;11653;50.848;4.584;2024-03-22T11:24:43;18.23;;;12.43;;
22973;SDS011;11653;50.848;4.584;2024-03-22T11:27:09;21.80;;;12.27;;
22973;SDS011;11653;50.848;4.584;2024-03-22T11:29:36;23.10;;;12.67;;
22973;SDS011;11653;50.848;4.584;2024-03-22T11:32:07;22.13;;;12.20;;
22973;SDS011;11653;50.848;4.584;2024-03-22T11:34:36;21.37;;;11.33;;
22973;SDS011;11653;50.848;4.584;2024-03-22T11:37:02;17.43;;;10.83;;
22973;SDS011;11653;50.848;4.584;2024-03-22T11:39:28;19.47;;;12.43;;
22973;SDS011;11653;50.848;4.584;2024-03-22T11:41:54;23.43;;;13.33;;
22973;SDS011;11653;50.848;4.584;2024-03-22T11:44:21;21.93;;;13.57;;
22973;SDS011;11653;50.848;4.584;2024-03-22T11:46:50;21.13;;;11.73;;
22973;SDS011;11653;50.848;4.584;2024-03-22T11:49:17;22.33;;;12.97;;
22973;SDS011;11653;50.848;4.584;2024-03-22T11:51:42;18.33;;;11.00;;
22973;SDS011;11653;50.848;4.584;2024-03-22T11:54:09;22.73;;;12.20;;
22973;SDS011;11653;50.848;4.584;2024-03-22T11:56:35;19.70;;;12.03;;
22973;SDS011;11653;50.848;4.584;2024-03-22T11:59:01;25.33;;;13.97;;
22973;SDS011;11653;50.848;4.584;2024-03-22T12:01:28;22.20;;;13.33;;
22973;SDS011;11653;50.848;4.584;2024-03-22T12:03:54;23.63;;;12.90;;
22973;SDS011;11653;50.848;4.584;2024-03-22T12:06:21;22.20;;;12.77;;
22973;SDS011;11653;50.848;4.584;2024-03-22T12:08:47;21.37;;;12.93;;
22973;SDS011;11653;50.848;4.584;2024-03-22T12:11:13;22.17;;;13.70;;
22973;SDS011;11653;50.848;4.584;2024-03-22T12:13:39;17.53;;;11.13;;
22973;SDS011;11653;50.848;4.584;2024-03-22T12:16:05;21.00;;;12.20;;
22973;SDS011;11653;50.848;4.584;2024-03-22T12:18:32;17.27;;;11.93;;
22973;SDS011;11653;50.848;4.584;2024-03-22T12:20:58;26.20;;;13.20;;
22973;SDS011;11653;50.848;4.584;2024-03-22T12:23:25;17.53;;;10.67;;
22973;SDS011;11653;50.848;4.584;2024-03-22T12:25:50;25.00;;;13.43;;
22973;SDS011;11653;50.848;4.584;2024-03-22T12:28:17;20.83;;;12.80;;
22973;SDS011;11653;50.848;4.584;2024-03-22T12:30:43;21.67;;;13.63;;
22973;SDS011;11653;50.848;4.584;2024-03-22T12:33:09;23.87;;;14.17;;
22973;SDS011;11653;50.848;4.584;2024-03-22T12:35:41;22.23;;;13.57;;
22973;SDS011;11653;50.848;4.584;2024-03-22T12:38:07;21.80;;;13.10;;
22973;SDS011;11653;50.848;4.584;2024-03-22T12:40:37;21.70;;;13.30;;
22973;SDS011;11653;50.848;4.584;2024-03-22T12:43:03;26.07;;;13.13;;
22973;SDS011;11653;50.848;4.584;2024-03-22T12:45:29;22.60;;;14.07;;
22973;SDS011;11653;50.848;4.584;2024-03-22T12:47:55;21.33;;;13.63;;
22973;SDS011;11653;50.848;4.584;2024-03-22T12:50:20;23.47;;;12.90;;
22973;SDS011;11653;50.848;4.584;2024-03-22T12:52:46;18.87;;;10.40;;
22973;SDS011;11653;50.848;4.584;2024-03-22T12:55:12;24.67;;;13.73;;
22973;SDS011;11653;50.848;4.584;2024-03-22T12:57:38;21.90;;;14.27;;
22973;SDS011;11653;50.848;4.584;2024-03-22T13:00:05;21.70;;;13.50;;
22973;SDS011;11653;50.848;4.584;2024-03-22T13:02:38;22.57;;;11.60;;
22973;SDS011;11653;50.848;4.584;2024-03-22T13:05:04;22.67;;;14.50;;
22973;SDS011;11653;50.848;4.584;2024-03-22T13:07:30;22.17;;;13.67;;
22973;SDS011;11653;50.848;4.584;2024-03-22T13:09:56;23.23;;;13.27;;
22973;SDS011;11653;50.848;4.584;2024-03-22T13:12:22;26.97;;;14.73;;
22973;SDS011;11653;50.848;4.584;2024-03-22T13:14:47;22.13;;;13.77;;
22973;SDS011;11653;50.848;4.584;2024-03-22T13:17:13;27.83;;;14.23;;
22973;SDS011;11653;50.848;4.584;2024-03-22T13:19:40;22.13;;;12.90;;
22973;SDS011;11653;50.848;4.584;2024-03-22T13:22:06;23.70;;;14.00;;
22973;SDS011;11653;50.848;4.584;2024-03-22T13:24:31;24.53;;;14.63;;
22973;SDS011;11653;50.848;4.584;2024-03-22T13:26:57;24.67;;;14.73;;
22973;SDS011;11653;50.848;4.584;2024-03-22T13:29:23;20.93;;;13.90;;
22973;SDS011;11653;50.848;4.584;2024-03-22T13:31:51;22.33;;;13.73;;
22973;SDS011;11653;50.848;4.584;2024-03-22T13:34:17;26.53;;;15.43;;
22973;SDS011;11653;50.848;4.584;2024-03-22T13:36:43;21.43;;;12.97;;
22973;SDS011;11653;50.848;4.584;2024-03-22T13:39:09;31.00;;;13.93;;
22973;SDS011;11653;50.848;4.584;2024-03-22T13:41:35;24.13;;;15.30;;
22973;SDS011;11653;50.848;4.584;2024-03-22T13:44:02;23.40;;;14.30;;
22973;SDS011;11653;50.848;4.584;2024-03-22T13:46:28;26.77;;;14.17;;
22973;SDS011;11653;50.848;4.584;2024-03-22T13:48:54;21.50;;;13.67;;
22973;SDS011;11653;50.848;4.584;2024-03-22T13:51:21;23.53;;;14.40;;
22973;SDS011;11653;50.848;4.584;2024-03-22T13:53:46;25.77;;;16.10;;
22973;SDS011;11653;50.848;4.584;2024-03-22T13:56:12;29.43;;;14.43;;
22973;SDS011;11653;50.848;4.584;2024-03-22T13:58:38;23.30;;;13.93;;
22973;SDS011;11653;50.848;4.584;2024-03-22T14:01:03;29.93;;;13.30;;
22973;SDS011;11653;50.848;4.584;2024-03-22T14:03:30;24.77;;;13.63;;
22973;SDS011;11653;50.848;4.584;2024-03-22T14:05:55;25.93;;;14.00;;
22973;SDS011;11653;50.848;4.584;2024-03-22T14:08:21;22.30;;;12.53;;
22973;SDS011;11653;50.848;4.584;2024-03-22T14:10:47;23.10;;;13.63;;
22973;SDS011;11653;50.848;4.584;2024-03-22T14:13:12;23.10;;;13.87;;
22973;SDS011;11653;50.848;4.584;2024-03-22T14:15:38;20.47;;;12.47;;
22973;SDS011;11653;50.848;4.584;2024-03-22T14:18:04;21.83;;;12.37;;